sensor_id;sensor_type;location;lat;lon;timestamp;pressure;altitude;pressure_sealevel;temperature;humidity
10464;BME280;5279;42.048;24.638;2023-04-27T00:01:28;97014.22;;;11.23;72.85
10464;BME280;5279;42.048;24.638;2023-04-27T00:03:55;97031.66;;;11.33;75.40
10464;BME280;5279;42.048;24.638;2023-04-27T00:06:22;97038.78;;;11.33;76.32
10464;BME280;5279;42.048;24.638;2023-04-27T00:08:58;97023.16;;;11.22;78.49
10464;BME280;5279;42.048;24.638;2023-04-27T00:11:25;97030.78;;;11.17;75.89
10464;BME280;5279;42.048;24.638;2023-04-27T00:13:52;97037.56;;;11.11;76.40
10464;BME280;5279;42.048;24.638;2023-04-27T00:16:19;97039.03;;;11.06;75.38
10464;BME280;5279;42.048;24.638;2023-04-27T00:18:46;97041.38;;;11.17;77.41
10464;BME280;5279;42.048;24.638;2023-04-27T00:21:13;97046.19;;;11.13;77.41
10464;BME280;5279;42.048;24.638;2023-04-27T00:23:40;97048.63;;;11.07;77.53
10464;BME280;5279;42.048;24.638;2023-04-27T00:26:09;97051.13;;;11.00;75.93
10464;BME280;5279;42.048;24.638;2023-04-27T00:28:36;97047.31;;;11.03;78.63
10464;BME280;5279;42.048;24.638;2023-04-27T00:31:03;97056.56;;;10.98;75.72
10464;BME280;5279;42.048;24.638;2023-04-27T00:33:30;97045.97;;;10.98;77.41
10464;BME280;5279;42.048;24.638;2023-04-27T00:35:58;97057.41;;;10.91;76.63
10464;BME280;5279;42.048;24.638;2023-04-27T00:38:26;97049.59;;;10.89;79.46
10464;BME280;5279;42.048;24.638;2023-04-27T00:41:00;97057.22;;;10.92;85.74
10464;BME280;5279;42.048;24.638;2023-04-27T00:43:28;97065.50;;;10.89;85.48
10464;BME280;5279;42.048;24.638;2023-04-27T00:45:55;97069.72;;;10.74;84.29
10464;BME280;5279;42.048;24.638;2023-04-27T00:48:23;97061.78;;;10.74;93.81
10464;BME280;5279;42.048;24.638;2023-04-27T00:50:50;97063.69;;;10.56;94.16
10464;BME280;5279;42.048;24.638;2023-04-27T00:53:18;97068.34;;;10.62;94.27
10464;BME280;5279;42.048;24.638;2023-04-27T00:55:45;97073.13;;;10.59;89.80
10464;BME280;5279;42.048;24.638;2023-04-27T00:58:13;97078.22;;;10.52;94.37
10464;BME280;5279;42.048;24.638;2023-04-27T01:00:41;97077.84;;;10.47;99.18
10464;BME280;5279;42.048;24.638;2023-04-27T01:03:08;97084.41;;;10.35;94.37
10464;BME280;5279;42.048;24.638;2023-04-27T01:05:36;97081.22;;;10.31;97.21
10464;BME280;5279;42.048;24.638;2023-04-27T01:08:03;97094.22;;;10.17;95.69
10464;BME280;5279;42.048;24.638;2023-04-27T01:10:31;97071.63;;;10.13;100.00
10464;BME280;5279;42.048;24.638;2023-04-27T01:12:58;97090.59;;;10.18;100.00
10464;BME280;5279;42.048;24.638;2023-04-27T01:15:26;97087.53;;;10.13;100.00
10464;BME280;5279;42.048;24.638;2023-04-27T01:17:59;97099.44;;;10.09;97.31
10464;BME280;5279;42.048;24.638;2023-04-27T01:20:26;97093.91;;;10.02;100.00
10464;BME280;5279;42.048;24.638;2023-04-27T01:22:54;97100.09;;;10.11;100.00
10464;BME280;5279;42.048;24.638;2023-04-27T01:25:23;97092.81;;;10.13;100.00
10464;BME280;5279;42.048;24.638;2023-04-27T01:27:50;97095.94;;;10.08;100.00
10464;BME280;5279;42.048;24.638;2023-04-27T01:30:18;97098.00;;;9.97;100.00
10464;BME280;5279;42.048;24.638;2023-04-27T01:32:46;97101.31;;;9.99;100.00
10464;BME280;5279;42.048;24.638;2023-04-27T01:35:14;97101.44;;;9.97;100.00
10464;BME280;5279;42.048;24.638;2023-04-27T01:37:41;97105.25;;;9.95;100.00
10464;BME280;5279;42.048;24.638;2023-04-27T01:40:09;97104.09;;;9.97;100.00
10464;BME280;5279;42.048;24.638;2023-04-27T01:42:38;97104.22;;;9.87;100.00
10464;BME280;5279;42.048;24.638;2023-04-27T01:45:06;97105.56;;;9.92;100.00
10464;BME280;5279;42.048;24.638;2023-04-27T01:47:33;97113.97;;;9.87;100.00
10464;BME280;5279;42.048;24.638;2023-04-27T01:50:00;97105.94;;;9.79;97.22
10464;BME280;5279;42.048;24.638;2023-04-27T01:52:28;97105.94;;;9.79;100.00
10464;BME280;5279;42.048;24.638;2023-04-27T01:54:55;97104.66;;;9.83;100.00
10464;BME280;5279;42.048;24.638;2023-04-27T01:57:22;97109.09;;;9.82;100.00
10464;BME280;5279;42.048;24.638;2023-04-27T01:59:51;97107.47;;;9.81;100.00
10464;BME280;5279;42.048;24.638;2023-04-27T02:02:18;97106.53;;;9.73;96.54
10464;BME280;5279;42.048;24.638;2023-04-27T02:04:45;97115.72;;;9.78;100.00
10464;BME280;5279;42.048;24.638;2023-04-27T02:07:12;97109.28;;;9.81;100.00
10464;BME280;5279;42.048;24.638;2023-04-27T02:09:39;97112.38;;;9.76;100.00
10464;BME280;5279;42.048;24.638;2023-04-27T02:12:06;97113.06;;;9.78;99.08
10464;BME280;5279;42.048;24.638;2023-04-27T02:14:33;97114.72;;;9.79;99.17
10464;BME280;5279;42.048;24.638;2023-04-27T02:17:01;97114.03;;;9.77;100.00
10464;BME280;5279;42.048;24.638;2023-04-27T02:19:29;97114.03;;;9.77;100.00
10464;BME280;5279;42.048;24.638;2023-04-27T02:21:56;97114.34;;;9.74;100.00
10464;BME280;5279;42.048;24.638;2023-04-27T02:24:23;97108.81;;;9.68;100.00
10464;BME280;5279;42.048;24.638;2023-04-27T02:26:50;97118.25;;;9.70;100.00
10464;BME280;5279;42.048;24.638;2023-04-27T02:29:17;97120.91;;;9.70;100.00
10464;BME280;5279;42.048;24.638;2023-04-27T02:31:44;97123.53;;;9.70;100.00
10464;BME280;5279;42.048;24.638;2023-04-27T02:34:13;97115.31;;;9.73;100.00
10464;BME280;5279;42.048;24.638;2023-04-27T02:36:40;97111.03;;;9.72;100.00
10464;BME280;5279;42.048;24.638;2023-04-27T02:39:07;97129.13;;;9.67;97.80
10464;BME280;5279;42.048;24.638;2023-04-27T02:41:34;97123.25;;;9.73;97.45
10464;BME280;5279;42.048;24.638;2023-04-27T02:44:01;97131.88;;;9.75;87.35
10464;BME280;5279;42.048;24.638;2023-04-27T02:46:28;97126.28;;;9.78;86.65
10464;BME280;5279;42.048;24.638;2023-04-27T02:48:55;97133.75;;;9.83;93.87
10464;BME280;5279;42.048;24.638;2023-04-27T02:51:23;97126.66;;;9.83;90.49
10464;BME280;5279;42.048;24.638;2023-04-27T02:53:52;97128.94;;;9.78;87.25
10464;BME280;5279;42.048;24.638;2023-04-27T02:56:19;97132.00;;;9.92;86.69
10464;BME280;5279;42.048;24.638;2023-04-27T02:58:46;97132.53;;;9.95;80.70
10464;BME280;5279;42.048;24.638;2023-04-27T03:01:14;97138.91;;;10.02;78.50
10464;BME280;5279;42.048;24.638;2023-04-27T03:03:46;97134.81;;;10.08;84.31
10464;BME280;5279;42.048;24.638;2023-04-27T03:13:02;97154.19;;;10.08;71.04
10464;BME280;5279;42.048;24.638;2023-04-27T03:15:29;97141.47;;;10.12;73.72
10464;BME280;5279;42.048;24.638;2023-04-27T03:17:56;97153.88;;;10.11;70.29
10464;BME280;5279;42.048;24.638;2023-04-27T03:20:23;97150.47;;;10.19;71.75
10464;BME280;5279;42.048;24.638;2023-04-27T03:22:51;97151.53;;;10.26;73.91
10464;BME280;5279;42.048;24.638;2023-04-27T03:25:19;97162.66;;;10.29;72.67
10464;BME280;5279;42.048;24.638;2023-04-27T03:27:46;97159.63;;;10.24;70.77
10464;BME280;5279;42.048;24.638;2023-04-27T03:30:15;97159.13;;;10.21;68.83
10464;BME280;5279;42.048;24.638;2023-04-27T03:32:42;97158.81;;;10.24;69.70
10464;BME280;5279;42.048;24.638;2023-04-27T03:35:09;97157.97;;;10.23;71.37
10464;BME280;5279;42.048;24.638;2023-04-27T03:37:38;97160.41;;;10.17;70.30
10464;BME280;5279;42.048;24.638;2023-04-27T03:40:06;97168.03;;;10.20;69.25
10464;BME280;5279;42.048;24.638;2023-04-27T03:42:33;97167.19;;;10.19;67.91
10464;BME280;5279;42.048;24.638;2023-04-27T03:45:00;97169.41;;;10.24;68.68
10464;BME280;5279;42.048;24.638;2023-04-27T03:47:29;97171.66;;;10.19;69.56
10464;BME280;5279;42.048;24.638;2023-04-27T03:49:56;97177.25;;;10.16;67.77
10464;BME280;5279;42.048;24.638;2023-04-27T03:52:23;97175.97;;;10.20;68.73
10464;BME280;5279;42.048;24.638;2023-04-27T03:54:50;97182.94;;;10.21;67.97
10464;BME280;5279;42.048;24.638;2023-04-27T03:57:18;97182.47;;;10.25;67.54
10464;BME280;5279;42.048;24.638;2023-04-27T03:59:45;97179.22;;;10.14;67.06
10464;BME280;5279;42.048;24.638;2023-04-27T04:02:12;97185.19;;;10.16;65.07
10464;BME280;5279;42.048;24.638;2023-04-27T04:04:41;97193.38;;;10.22;64.06
10464;BME280;5279;42.048;24.638;2023-04-27T04:07:08;97190.88;;;10.21;66.88
10464;BME280;5279;42.048;24.638;2023-04-27T04:09:35;97195.28;;;10.30;68.36
10464;BME280;5279;42.048;24.638;2023-04-27T04:12:03;97196.91;;;10.31;68.60
10464;BME280;5279;42.048;24.638;2023-04-27T04:14:30;97198.28;;;10.35;68.09
10464;BME280;5279;42.048;24.638;2023-04-27T04:16:57;97204.09;;;10.38;65.82
10464;BME280;5279;42.048;24.638;2023-04-27T04:19:24;97205.25;;;10.36;64.03
10464;BME280;5279;42.048;24.638;2023-04-27T04:21:53;97206.59;;;10.40;67.08
10464;BME280;5279;42.048;24.638;2023-04-27T04:24:21;97210.00;;;10.50;64.23
10464;BME280;5279;42.048;24.638;2023-04-27T04:26:48;97221.94;;;10.54;64.43
10464;BME280;5279;42.048;24.638;2023-04-27T04:29:15;97211.19;;;10.56;65.97
10464;BME280;5279;42.048;24.638;2023-04-27T04:31:43;97215.56;;;10.65;63.48
10464;BME280;5279;42.048;24.638;2023-04-27T04:34:10;97221.16;;;10.62;62.51
10464;BME280;5279;42.048;24.638;2023-04-27T04:36:39;97219.72;;;10.67;62.40
10464;BME280;5279;42.048;24.638;2023-04-27T04:39:07;97217.44;;;10.72;61.50
10464;BME280;5279;42.048;24.638;2023-04-27T04:41:34;97217.84;;;10.85;63.93
10464;BME280;5279;42.048;24.638;2023-04-27T04:44:01;97217.06;;;10.85;60.61
10464;BME280;5279;42.048;24.638;2023-04-27T04:46:28;97226.28;;;10.81;60.72
10464;BME280;5279;42.048;24.638;2023-04-27T04:48:55;97230.91;;;10.79;61.71
10464;BME280;5279;42.048;24.638;2023-04-27T04:51:22;97232.78;;;10.86;63.03
10464;BME280;5279;42.048;24.638;2023-04-27T04:53:49;97234.81;;;10.92;61.96
10464;BME280;5279;42.048;24.638;2023-04-27T04:56:17;97234.84;;;11.01;61.32
10464;BME280;5279;42.048;24.638;2023-04-27T04:58:44;97242.31;;;10.97;60.87
10464;BME280;5279;42.048;24.638;2023-04-27T05:01:11;97242.09;;;10.90;60.97
10464;BME280;5279;42.048;24.638;2023-04-27T05:03:38;97243.19;;;11.06;64.49
10464;BME280;5279;42.048;24.638;2023-04-27T05:06:06;97251.16;;;11.06;59.37
10464;BME280;5279;42.048;24.638;2023-04-27T05:08:33;97253.09;;;11.04;59.33
10464;BME280;5279;42.048;24.638;2023-04-27T05:11:00;97255.91;;;11.02;61.18
10464;BME280;5279;42.048;24.638;2023-04-27T05:13:28;97250.94;;;10.99;58.17
10464;BME280;5279;42.048;24.638;2023-04-27T05:15:55;97263.31;;;10.90;58.46
10464;BME280;5279;42.048;24.638;2023-04-27T05:18:22;97254.34;;;10.91;62.73
10464;BME280;5279;42.048;24.638;2023-04-27T05:20:49;97261.97;;;10.94;58.71
10464;BME280;5279;42.048;24.638;2023-04-27T05:23:16;97262.69;;;10.96;60.11
10464;BME280;5279;42.048;24.638;2023-04-27T05:25:42;97261.63;;;10.89;57.25
10464;BME280;5279;42.048;24.638;2023-04-27T05:28:09;97265.44;;;10.87;58.12
10464;BME280;5279;42.048;24.638;2023-04-27T05:30:38;97270.47;;;10.98;59.39
10464;BME280;5279;42.048;24.638;2023-04-27T05:33:05;97267.28;;;10.94;56.42
10464;BME280;5279;42.048;24.638;2023-04-27T05:35:32;97259.34;;;10.94;58.32
10464;BME280;5279;42.048;24.638;2023-04-27T05:37:59;97265.47;;;10.95;57.72
10464;BME280;5279;42.048;24.638;2023-04-27T05:40:27;97262.59;;;11.06;57.68
10464;BME280;5279;42.048;24.638;2023-04-27T05:42:53;97270.72;;;11.13;56.66
10464;BME280;5279;42.048;24.638;2023-04-27T05:45:21;97256.03;;;11.18;57.67
10464;BME280;5279;42.048;24.638;2023-04-27T05:47:49;97272.59;;;11.20;55.87
10464;BME280;5279;42.048;24.638;2023-04-27T05:50:16;97287.53;;;11.21;55.32
10464;BME280;5279;42.048;24.638;2023-04-27T05:52:43;97292.41;;;11.34;57.31
10464;BME280;5279;42.048;24.638;2023-04-27T05:55:09;97279.19;;;11.42;55.20
10464;BME280;5279;42.048;24.638;2023-04-27T05:57:36;97283.78;;;11.32;55.17
10464;BME280;5279;42.048;24.638;2023-04-27T06:00:04;97283.88;;;11.48;56.50
10464;BME280;5279;42.048;24.638;2023-04-27T06:02:35;97291.44;;;11.69;54.80
10464;BME280;5279;42.048;24.638;2023-04-27T06:05:04;97296.31;;;11.73;53.26
10464;BME280;5279;42.048;24.638;2023-04-27T06:07:31;97287.19;;;11.76;55.87
10464;BME280;5279;42.048;24.638;2023-04-27T06:09:58;97283.28;;;11.88;54.81
10464;BME280;5279;42.048;24.638;2023-04-27T06:12:25;97284.81;;;12.07;57.47
10464;BME280;5279;42.048;24.638;2023-04-27T06:14:51;97288.00;;;12.18;54.24
10464;BME280;5279;42.048;24.638;2023-04-27T06:17:20;97292.22;;;12.37;56.99
10464;BME280;5279;42.048;24.638;2023-04-27T06:19:47;97288.78;;;12.02;51.88
10464;BME280;5279;42.048;24.638;2023-04-27T06:22:15;97287.13;;;12.01;53.90
10464;BME280;5279;42.048;24.638;2023-04-27T06:24:42;97300.81;;;11.81;52.22
10464;BME280;5279;42.048;24.638;2023-04-27T06:27:09;97287.53;;;11.73;54.25
10464;BME280;5279;42.048;24.638;2023-04-27T06:29:36;97288.34;;;11.73;55.93
10464;BME280;5279;42.048;24.638;2023-04-27T06:32:03;97296.97;;;11.75;53.48
10464;BME280;5279;42.048;24.638;2023-04-27T06:34:32;97285.84;;;11.46;55.30
10464;BME280;5279;42.048;24.638;2023-04-27T06:36:59;97292.50;;;11.50;53.28
10464;BME280;5279;42.048;24.638;2023-04-27T06:39:28;97300.22;;;11.35;55.60
10464;BME280;5279;42.048;24.638;2023-04-27T06:41:56;97290.50;;;11.52;56.72
10464;BME280;5279;42.048;24.638;2023-04-27T06:44:23;97308.22;;;11.43;56.20
10464;BME280;5279;42.048;24.638;2023-04-27T06:46:50;97303.31;;;11.57;58.20
10464;BME280;5279;42.048;24.638;2023-04-27T06:49:17;97305.09;;;11.74;54.58
10464;BME280;5279;42.048;24.638;2023-04-27T06:51:43;97308.84;;;11.63;55.72
10464;BME280;5279;42.048;24.638;2023-04-27T06:54:11;97310.97;;;11.85;56.29
10464;BME280;5279;42.048;24.638;2023-04-27T06:56:39;97303.78;;;11.78;55.57
10464;BME280;5279;42.048;24.638;2023-04-27T06:59:06;97314.25;;;11.79;54.76
10464;BME280;5279;42.048;24.638;2023-04-27T07:01:33;97313.44;;;11.79;54.47
10464;BME280;5279;42.048;24.638;2023-04-27T07:04:00;97301.00;;;11.79;54.74
10464;BME280;5279;42.048;24.638;2023-04-27T07:06:27;97303.66;;;11.79;54.64
10464;BME280;5279;42.048;24.638;2023-04-27T07:08:54;97305.59;;;11.77;54.95
10464;BME280;5279;42.048;24.638;2023-04-27T07:11:21;97310.06;;;11.77;55.76
10464;BME280;5279;42.048;24.638;2023-04-27T07:13:49;97311.50;;;11.97;56.97
10464;BME280;5279;42.048;24.638;2023-04-27T07:16:18;97302.28;;;12.17;54.24
10464;BME280;5279;42.048;24.638;2023-04-27T07:18:45;97303.16;;;12.34;55.18
10464;BME280;5279;42.048;24.638;2023-04-27T07:21:12;97309.78;;;12.38;54.43
10464;BME280;5279;42.048;24.638;2023-04-27T07:23:39;97303.16;;;12.50;54.32
10464;BME280;5279;42.048;24.638;2023-04-27T07:26:06;97305.31;;;12.38;53.12
10464;BME280;5279;42.048;24.638;2023-04-27T07:28:33;97316.59;;;12.32;53.46
10464;BME280;5279;42.048;24.638;2023-04-27T07:31:03;97309.47;;;12.33;54.29
10464;BME280;5279;42.048;24.638;2023-04-27T07:33:30;97311.97;;;12.42;53.12
10464;BME280;5279;42.048;24.638;2023-04-27T07:35:57;97306.19;;;12.71;53.67
10464;BME280;5279;42.048;24.638;2023-04-27T07:38:24;97310.19;;;12.83;51.81
10464;BME280;5279;42.048;24.638;2023-04-27T07:40:53;97307.72;;;12.98;50.81
10464;BME280;5279;42.048;24.638;2023-04-27T07:43:20;97310.19;;;13.32;53.12
10464;BME280;5279;42.048;24.638;2023-04-27T07:45:48;97304.47;;;13.67;49.85
10464;BME280;5279;42.048;24.638;2023-04-27T07:48:16;97299.63;;;14.09;48.98
10464;BME280;5279;42.048;24.638;2023-04-27T07:50:44;97302.34;;;14.40;49.08
10464;BME280;5279;42.048;24.638;2023-04-27T07:53:11;97300.44;;;14.71;48.06
10464;BME280;5279;42.048;24.638;2023-04-27T07:55:37;97299.34;;;14.89;44.52
10464;BME280;5279;42.048;24.638;2023-04-27T07:58:05;97302.69;;;15.05;47.28
10464;BME280;5279;42.048;24.638;2023-04-27T08:00:32;97305.50;;;15.26;47.59
10464;BME280;5279;42.048;24.638;2023-04-27T08:02:59;97301.97;;;15.11;44.02
10464;BME280;5279;42.048;24.638;2023-04-27T08:05:27;97298.81;;;15.30;44.25
10464;BME280;5279;42.048;24.638;2023-04-27T08:07:54;97307.69;;;15.60;42.72
10464;BME280;5279;42.048;24.638;2023-04-27T08:10:21;97303.09;;;15.54;42.37
10464;BME280;5279;42.048;24.638;2023-04-27T08:12:48;97293.63;;;15.81;44.20
10464;BME280;5279;42.048;24.638;2023-04-27T08:15:16;97292.06;;;16.01;41.64
10464;BME280;5279;42.048;24.638;2023-04-27T08:17:43;97289.69;;;16.27;41.17
10464;BME280;5279;42.048;24.638;2023-04-27T08:20:10;97291.22;;;15.86;40.27
10464;BME280;5279;42.048;24.638;2023-04-27T08:22:40;97293.16;;;15.92;42.01
10464;BME280;5279;42.048;24.638;2023-04-27T08:25:08;97293.25;;;15.55;41.87
10464;BME280;5279;42.048;24.638;2023-04-27T08:27:36;97277.44;;;15.30;42.89
10464;BME280;5279;42.048;24.638;2023-04-27T08:30:03;97275.66;;;15.75;43.38
10464;BME280;5279;42.048;24.638;2023-04-27T08:32:31;97270.31;;;15.90;40.96
10464;BME280;5279;42.048;24.638;2023-04-27T08:34:58;97287.66;;;15.64;40.63
10464;BME280;5279;42.048;24.638;2023-04-27T08:37:24;97274.66;;;15.76;43.03
10464;BME280;5279;42.048;24.638;2023-04-27T08:39:53;97272.03;;;16.12;41.51
10464;BME280;5279;42.048;24.638;2023-04-27T08:42:20;97280.00;;;15.76;40.82
10464;BME280;5279;42.048;24.638;2023-04-27T08:44:47;97282.75;;;15.68;42.56
10464;BME280;5279;42.048;24.638;2023-04-27T08:47:14;97271.03;;;15.69;42.31
10464;BME280;5279;42.048;24.638;2023-04-27T08:49:41;97273.06;;;15.81;39.95
10464;BME280;5279;42.048;24.638;2023-04-27T08:52:11;97263.13;;;16.05;39.79
10464;BME280;5279;42.048;24.638;2023-04-27T08:54:38;97245.66;;;16.45;40.54
10464;BME280;5279;42.048;24.638;2023-04-27T08:57:10;97254.25;;;16.76;41.53
10464;BME280;5279;42.048;24.638;2023-04-27T08:59:37;97251.88;;;16.30;39.08
10464;BME280;5279;42.048;24.638;2023-04-27T09:02:05;97256.31;;;16.38;41.55
10464;BME280;5279;42.048;24.638;2023-04-27T09:04:38;97252.91;;;16.51;40.03
10464;BME280;5279;42.048;24.638;2023-04-27T09:07:12;97253.75;;;16.87;39.87
10464;BME280;5279;42.048;24.638;2023-04-27T09:09:39;97258.81;;;16.61;38.90
10464;BME280;5279;42.048;24.638;2023-04-27T09:12:15;97269.81;;;16.15;40.97
10464;BME280;5279;42.048;24.638;2023-04-27T09:14:42;97261.53;;;16.10;38.83
10464;BME280;5279;42.048;24.638;2023-04-27T09:17:09;97257.38;;;16.44;38.45
10464;BME280;5279;42.048;24.638;2023-04-27T09:19:36;97254.81;;;16.71;38.05
10464;BME280;5279;42.048;24.638;2023-04-27T09:22:04;97253.19;;;17.19;40.33
10464;BME280;5279;42.048;24.638;2023-04-27T09:24:32;97248.88;;;17.53;35.50
10464;BME280;5279;42.048;24.638;2023-04-27T09:26:59;97258.72;;;17.45;37.01
10464;BME280;5279;42.048;24.638;2023-04-27T09:29:36;97257.97;;;17.03;35.78
10464;BME280;5279;42.048;24.638;2023-04-27T09:32:13;97256.81;;;17.39;36.87
10464;BME280;5279;42.048;24.638;2023-04-27T09:34:42;97255.91;;;17.54;35.55
10464;BME280;5279;42.048;24.638;2023-04-27T09:37:09;97227.91;;;17.28;34.54
10464;BME280;5279;42.048;24.638;2023-04-27T09:39:37;97249.25;;;16.94;34.83
10464;BME280;5279;42.048;24.638;2023-04-27T09:42:04;97239.59;;;16.93;35.10
10464;BME280;5279;42.048;24.638;2023-04-27T09:44:31;97245.31;;;17.11;37.98
10464;BME280;5279;42.048;24.638;2023-04-27T09:47:00;97237.88;;;17.13;35.45
10464;BME280;5279;42.048;24.638;2023-04-27T09:49:27;97240.66;;;16.99;36.23
10464;BME280;5279;42.048;24.638;2023-04-27T09:51:55;97235.69;;;16.17;37.38
10464;BME280;5279;42.048;24.638;2023-04-27T09:54:26;97246.38;;;16.32;36.99
10464;BME280;5279;42.048;24.638;2023-04-27T09:57:04;97246.16;;;16.33;38.47
10464;BME280;5279;42.048;24.638;2023-04-27T09:59:45;97234.25;;;16.00;39.38
10464;BME280;5279;42.048;24.638;2023-04-27T10:02:16;97240.34;;;16.30;39.43
10464;BME280;5279;42.048;24.638;2023-04-27T10:05:07;97235.00;;;16.66;38.08
10464;BME280;5279;42.048;24.638;2023-04-27T10:07:38;97238.06;;;16.84;36.99
10464;BME280;5279;42.048;24.638;2023-04-27T10:10:14;97241.38;;;16.86;36.20
10464;BME280;5279;42.048;24.638;2023-04-27T10:12:41;97237.94;;;16.71;35.00
10464;BME280;5279;42.048;24.638;2023-04-27T10:15:12;97249.16;;;16.81;37.46
10464;BME280;5279;42.048;24.638;2023-04-27T10:17:47;97248.25;;;16.74;36.78
10464;BME280;5279;42.048;24.638;2023-04-27T10:20:15;97232.31;;;16.66;35.34
10464;BME280;5279;42.048;24.638;2023-04-27T10:22:43;97232.59;;;16.71;36.45
10464;BME280;5279;42.048;24.638;2023-04-27T10:25:18;97246.53;;;17.15;35.25
10464;BME280;5279;42.048;24.638;2023-04-27T10:27:50;97234.75;;;17.37;35.51
10464;BME280;5279;42.048;24.638;2023-04-27T10:30:19;97234.38;;;17.40;35.10
10464;BME280;5279;42.048;24.638;2023-04-27T10:32:51;97240.41;;;17.21;36.45
10464;BME280;5279;42.048;24.638;2023-04-27T10:35:19;97257.78;;;17.04;37.45
10464;BME280;5279;42.048;24.638;2023-04-27T10:37:47;97243.91;;;16.94;38.95
10464;BME280;5279;42.048;24.638;2023-04-27T10:40:14;97244.50;;;16.68;37.74
10464;BME280;5279;42.048;24.638;2023-04-27T10:42:43;97234.75;;;16.82;37.58
10464;BME280;5279;42.048;24.638;2023-04-27T10:45:11;97240.09;;;16.82;38.19
10464;BME280;5279;42.048;24.638;2023-04-27T10:47:39;97245.19;;;16.98;37.23
10464;BME280;5279;42.048;24.638;2023-04-27T10:50:09;97235.25;;;16.92;39.65
10464;BME280;5279;42.048;24.638;2023-04-27T10:52:41;97254.88;;;16.78;39.49
10464;BME280;5279;42.048;24.638;2023-04-27T10:55:15;97248.13;;;16.61;39.39
10464;BME280;5279;42.048;24.638;2023-04-27T10:57:46;97236.13;;;16.57;39.76
10464;BME280;5279;42.048;24.638;2023-04-27T11:00:14;97246.84;;;16.57;38.43
10464;BME280;5279;42.048;24.638;2023-04-27T11:02:43;97250.22;;;16.86;36.58
10464;BME280;5279;42.048;24.638;2023-04-27T11:05:17;97247.03;;;17.25;38.41
10464;BME280;5279;42.048;24.638;2023-04-27T11:07:44;97242.03;;;17.43;37.75
10464;BME280;5279;42.048;24.638;2023-04-27T11:10:16;97244.03;;;17.63;36.05
10464;BME280;5279;42.048;24.638;2023-04-27T11:12:43;97237.75;;;17.83;37.38
10464;BME280;5279;42.048;24.638;2023-04-27T11:15:10;97242.97;;;17.98;37.06
10464;BME280;5279;42.048;24.638;2023-04-27T11:17:39;97255.38;;;18.12;37.39
10464;BME280;5279;42.048;24.638;2023-04-27T11:20:07;97239.22;;;18.46;37.00
10464;BME280;5279;42.048;24.638;2023-04-27T11:22:42;97259.91;;;18.59;35.81
10464;BME280;5279;42.048;24.638;2023-04-27T11:25:10;97251.47;;;18.69;35.32
10464;BME280;5279;42.048;24.638;2023-04-27T11:27:38;97258.50;;;18.83;34.36
10464;BME280;5279;42.048;24.638;2023-04-27T11:30:16;97261.41;;;18.75;33.85
10464;BME280;5279;42.048;24.638;2023-04-27T11:32:44;97253.13;;;18.83;34.74
10464;BME280;5279;42.048;24.638;2023-04-27T11:35:11;97254.34;;;18.67;32.31
10464;BME280;5279;42.048;24.638;2023-04-27T11:37:40;97250.25;;;19.30;33.78
10464;BME280;5279;42.048;24.638;2023-04-27T11:40:07;97245.63;;;19.90;35.14
10464;BME280;5279;42.048;24.638;2023-04-27T11:42:35;97251.31;;;20.26;32.55
10464;BME280;5279;42.048;24.638;2023-04-27T11:45:03;97244.75;;;20.53;30.65
10464;BME280;5279;42.048;24.638;2023-04-27T11:47:32;97252.81;;;20.60;30.91
10464;BME280;5279;42.048;24.638;2023-04-27T11:50:01;97245.66;;;20.79;32.39
10464;BME280;5279;42.048;24.638;2023-04-27T11:52:29;97249.72;;;20.88;31.94
10464;BME280;5279;42.048;24.638;2023-04-27T11:54:59;97251.22;;;21.15;31.45
10464;BME280;5279;42.048;24.638;2023-04-27T11:57:27;97245.97;;;20.89;31.22
10464;BME280;5279;42.048;24.638;2023-04-27T11:59:56;97247.63;;;20.58;30.92
10464;BME280;5279;42.048;24.638;2023-04-27T12:02:26;97239.91;;;20.31;31.11
10464;BME280;5279;42.048;24.638;2023-04-27T12:04:53;97245.63;;;20.47;30.62
10464;BME280;5279;42.048;24.638;2023-04-27T12:07:20;97243.56;;;20.81;31.50
10464;BME280;5279;42.048;24.638;2023-04-27T12:09:46;97233.63;;;21.12;28.77
10464;BME280;5279;42.048;24.638;2023-04-27T12:12:15;97235.53;;;21.30;30.89
10464;BME280;5279;42.048;24.638;2023-04-27T12:14:43;97229.97;;;21.25;30.09
10464;BME280;5279;42.048;24.638;2023-04-27T12:17:10;97234.59;;;21.18;30.17
10464;BME280;5279;42.048;24.638;2023-04-27T12:19:37;97239.97;;;20.87;30.98
10464;BME280;5279;42.048;24.638;2023-04-27T12:22:04;97228.03;;;20.45;30.18
10464;BME280;5279;42.048;24.638;2023-04-27T12:24:31;97229.34;;;20.23;30.38
10464;BME280;5279;42.048;24.638;2023-04-27T12:26:58;97236.75;;;19.83;31.19
10464;BME280;5279;42.048;24.638;2023-04-27T12:29:27;97234.06;;;19.83;32.11
10464;BME280;5279;42.048;24.638;2023-04-27T12:31:54;97241.34;;;19.76;35.23
10464;BME280;5279;42.048;24.638;2023-04-27T12:34:21;97228.25;;;19.86;31.08
10464;BME280;5279;42.048;24.638;2023-04-27T12:36:48;97222.31;;;20.28;29.50
10464;BME280;5279;42.048;24.638;2023-04-27T12:39:16;97223.44;;;20.07;29.69
10464;BME280;5279;42.048;24.638;2023-04-27T12:41:44;97230.63;;;19.49;32.37
10464;BME280;5279;42.048;24.638;2023-04-27T12:44:12;97231.25;;;19.12;32.81
10464;BME280;5279;42.048;24.638;2023-04-27T12:46:41;97232.44;;;18.64;31.25
10464;BME280;5279;42.048;24.638;2023-04-27T12:49:09;97240.50;;;18.50;30.26
10464;BME280;5279;42.048;24.638;2023-04-27T12:51:37;97232.44;;;18.50;32.71
10464;BME280;5279;42.048;24.638;2023-04-27T12:54:04;97238.63;;;18.58;30.92
10464;BME280;5279;42.048;24.638;2023-04-27T12:56:32;97230.38;;;18.52;33.39
10464;BME280;5279;42.048;24.638;2023-04-27T12:58:59;97236.06;;;18.23;33.30
10464;BME280;5279;42.048;24.638;2023-04-27T13:01:27;97232.63;;;17.95;33.60
10464;BME280;5279;42.048;24.638;2023-04-27T13:03:58;97233.91;;;17.99;33.61
10464;BME280;5279;42.048;24.638;2023-04-27T13:06:25;97241.38;;;18.10;34.58
10464;BME280;5279;42.048;24.638;2023-04-27T13:08:52;97227.75;;;18.05;34.23
10464;BME280;5279;42.048;24.638;2023-04-27T13:11:19;97237.09;;;17.81;34.75